createdAt,value
2023-03-01T00:01:38.879Z,96662.72
2023-03-01T00:04:07.257Z,96638.81
2023-03-01T00:06:35.557Z,96654.47
2023-03-01T00:09:05.861Z,96664.03
2023-03-01T00:11:35.647Z,96638.50
2023-03-01T00:14:08.144Z,96647.91
2023-03-01T00:16:39.756Z,96531.59
2023-03-01T00:19:08.875Z,96618.56
2023-03-01T00:21:37.316Z,96654.84
2023-03-01T00:24:07.887Z,96651.19
2023-03-01T00:26:36.373Z,96647.56
2023-03-01T00:29:07.146Z,96651.69
2023-03-01T00:31:36.023Z,96651.53
2023-03-01T00:34:06.857Z,96646.09
2023-03-01T00:36:37.691Z,96649.56
2023-03-01T00:39:12.038Z,96650.53
2023-03-01T00:41:41.196Z,96653.00
2023-03-01T00:44:09.631Z,96652.81
2023-03-01T00:46:38.294Z,96660.44
2023-03-01T00:49:06.843Z,96679.53
2023-03-01T00:51:35.294Z,96653.19
2023-03-01T00:54:04.704Z,96668.34
2023-03-01T00:56:34.680Z,96666.69
2023-03-01T00:59:03.512Z,96664.72
2023-03-01T01:01:33.118Z,96664.72
2023-03-01T01:04:03.610Z,96661.09
2023-03-01T01:06:33.873Z,96639.03
2023-03-01T01:09:02.899Z,96627.16
2023-03-01T01:11:33.339Z,96643.44
2023-03-01T01:14:01.967Z,96618.59
2023-03-01T01:16:32.219Z,96628.63
2023-03-01T01:19:01.063Z,96643.94
2023-03-01T01:21:30.368Z,96637.38
2023-03-01T01:23:59.568Z,96592.56
2023-03-01T01:26:30.403Z,96631.06
2023-03-01T01:29:00.927Z,96629.78
2023-03-01T01:31:30.824Z,96532.09
2023-03-01T01:34:02.347Z,96577.41
2023-03-01T01:36:31.632Z,96620.53
2023-03-01T01:39:00.684Z,96616.91
2023-03-01T01:41:31.123Z,96625.13
2023-03-01T01:44:28.688Z,96624.69
2023-03-01T01:46:59.704Z,96526.69
2023-03-01T01:49:34.444Z,96617.44
2023-03-01T01:52:09.993Z,96627.78
2023-03-01T01:54:44.100Z,96609.97
2023-03-01T01:57:17.191Z,96537.38
2023-03-01T01:59:53.096Z,96605.06
2023-03-01T02:02:22.703Z,96595.47
2023-03-01T02:04:54.919Z,96561.22
2023-03-01T02:07:25.501Z,96545.44
2023-03-01T02:09:55.453Z,96577.38
2023-03-01T02:12:26.807Z,96567.81
2023-03-01T02:14:56.557Z,96560.56
2023-03-01T02:17:25.535Z,96551.53
2023-03-01T02:20:08.187Z,96554.66
2023-03-01T02:22:39.768Z,96555.34
2023-03-01T02:25:22.477Z,96549.72
2023-03-01T02:27:58.202Z,96546.09
2023-03-01T02:30:29.336Z,96535.91
2023-03-01T02:33:03.877Z,96534.25
2023-03-01T02:35:36.283Z,96550.03
2023-03-01T02:38:06.132Z,96558.94
2023-03-01T02:40:39.492Z,96566.00
2023-03-01T02:43:11.358Z,96532.91
2023-03-01T02:45:50.440Z,96527.97
2023-03-01T02:48:18.817Z,96537.19
2023-03-01T02:51:05.471Z,96447.84
2023-03-01T02:53:44.710Z,96553.34
2023-03-01T02:56:14.326Z,96559.09
2023-03-01T02:58:49.140Z,96562.91
2023-03-01T03:01:18.991Z,96565.88
2023-03-01T03:03:47.433Z,96559.28
2023-03-01T03:06:16.142Z,96560.63
2023-03-01T03:08:45.120Z,96577.41
2023-03-01T03:11:13.435Z,96553.00
2023-03-01T03:13:49.213Z,96566.22
2023-03-01T03:16:19.496Z,96518.78
2023-03-01T03:18:47.872Z,96558.28
2023-03-01T03:21:16.494Z,96544.78
2023-03-01T03:23:45.000Z,96559.56
2023-03-01T03:26:16.319Z,96565.16
2023-03-01T03:28:44.840Z,96559.25
2023-03-01T03:31:13.243Z,96552.97
2023-03-01T03:33:43.061Z,96513.59
2023-03-01T03:36:14.063Z,96552.97
2023-03-01T03:38:43.260Z,96563.16
2023-03-01T03:41:11.610Z,96548.00
2023-03-01T03:43:41.200Z,96551.47
2023-03-01T03:46:09.929Z,96551.28
2023-03-01T03:48:40.073Z,96558.16
2023-03-01T03:51:12.843Z,96550.25
2023-03-01T03:53:41.388Z,96562.53
2023-03-01T03:56:10.014Z,96551.19
2023-03-01T03:58:38.380Z,96543.63
2023-03-01T04:01:07.079Z,96529.47
2023-03-01T04:03:36.325Z,96520.22
2023-03-01T04:06:05.202Z,96542.00
2023-03-01T04:08:35.034Z,96548.94
2023-03-01T04:11:25.522Z,96542.72
2023-03-01T04:13:56.372Z,96546.31
2023-03-01T04:16:25.612Z,96520.25
2023-03-01T04:18:54.617Z,96481.56
2023-03-01T04:21:23.964Z,96543.34
2023-03-01T04:23:53.882Z,96541.38
2023-03-01T04:26:22.410Z,96534.63
2023-03-01T04:28:51.669Z,96534.44
2023-03-01T04:31:22.698Z,96535.28
2023-03-01T04:33:53.660Z,96517.69
2023-03-01T04:36:24.432Z,96533.47
2023-03-01T04:38:54.309Z,96527.56
2023-03-01T04:41:25.787Z,96479.09
2023-03-01T04:43:54.197Z,96489.94
2023-03-01T04:46:29.430Z,96490.31
2023-03-01T04:48:58.102Z,96522.56
2023-03-01T04:51:26.540Z,96525.53
2023-03-01T04:53:56.660Z,96514.19
2023-03-01T04:56:25.195Z,96513.00
2023-03-01T04:58:55.999Z,96520.25
2023-03-01T05:01:24.394Z,96519.16
2023-03-01T05:03:54.384Z,96519.94
2023-03-01T05:06:23.440Z,96513.38
2023-03-01T05:08:51.894Z,96509.75
2023-03-01T05:11:22.007Z,96501.72
2023-03-01T05:13:51.052Z,96510.25
2023-03-01T05:16:21.152Z,96505.50
2023-03-01T05:18:51.648Z,96506.97
2023-03-01T05:21:20.216Z,96508.78
2023-03-01T05:23:48.524Z,96509.44
2023-03-01T05:26:33.892Z,96457.88
2023-03-01T05:29:03.760Z,96465.63
2023-03-01T05:31:32.742Z,96499.72
2023-03-01T05:34:01.027Z,96493.00
2023-03-01T05:36:29.781Z,96489.41
2023-03-01T05:38:58.275Z,96487.44
2023-03-01T05:41:26.667Z,96453.50
2023-03-01T05:43:54.978Z,96489.72
2023-03-01T05:46:25.716Z,96496.97
2023-03-01T05:48:54.164Z,96480.00
2023-03-01T05:51:23.324Z,96498.91
2023-03-01T05:53:51.942Z,96487.22
2023-03-01T05:56:20.199Z,96493.97
2023-03-01T05:58:50.494Z,96491.81
2023-03-01T06:01:18.874Z,96493.09
2023-03-01T06:03:49.597Z,96468.19
2023-03-01T06:06:18.121Z,96499.50
2023-03-01T06:08:46.474Z,96497.38
2023-03-01T06:11:14.714Z,96502.47
2023-03-01T06:13:44.190Z,96497.41
2023-03-01T06:16:13.542Z,96414.06
2023-03-01T06:18:42.634Z,96495.91
2023-03-01T06:21:12.855Z,96506.31
2023-03-01T06:23:41.177Z,96513.38
2023-03-01T06:26:10.688Z,96496.06
2023-03-01T06:28:39.226Z,96481.09
2023-03-01T06:31:09.990Z,96498.59
2023-03-01T06:33:38.589Z,96506.78
2023-03-01T06:36:07.412Z,96494.47
2023-03-01T06:38:37.370Z,96485.94
2023-03-01T06:41:05.979Z,96499.28
2023-03-01T06:43:34.340Z,96504.56
2023-03-01T06:46:02.979Z,96513.47
2023-03-01T06:48:31.561Z,96503.28
2023-03-01T06:51:01.802Z,96437.75
2023-03-01T06:53:30.318Z,96508.22
2023-03-01T06:56:01.380Z,96515.47
2023-03-01T06:58:29.756Z,96517.13
2023-03-01T07:00:58.201Z,96514.00
2023-03-01T07:03:26.595Z,96505.94
2023-03-01T07:05:54.966Z,96505.28
2023-03-01T07:08:23.338Z,96518.13
2023-03-01T07:10:57.684Z,96523.56
2023-03-01T07:13:27.626Z,96522.06
2023-03-01T07:15:56.377Z,96489.16
2023-03-01T07:18:24.749Z,96505.94
2023-03-01T07:20:53.098Z,96512.03
2023-03-01T07:23:21.746Z,96488.16
2023-03-01T07:25:54.813Z,96514.78
2023-03-01T07:28:27.220Z,96504.06
2023-03-01T07:30:56.279Z,96501.75
2023-03-01T07:33:24.640Z,96506.53
2023-03-01T07:35:58.936Z,96495.94
2023-03-01T07:38:27.457Z,96462.69
2023-03-01T07:40:58.420Z,96497.88
2023-03-01T07:43:28.385Z,96495.69
2023-03-01T07:45:56.806Z,96500.13
2023-03-01T07:48:25.125Z,96499.34
2023-03-01T07:50:54.563Z,96509.66
2023-03-01T07:53:23.008Z,96506.34
2023-03-01T07:55:51.290Z,96507.00
2023-03-01T07:58:19.633Z,96503.84
2023-03-01T08:00:49.437Z,96456.47
2023-03-01T08:05:44.809Z,96457.25
2023-03-01T08:08:13.164Z,96491.28
2023-03-01T08:10:41.478Z,96508.66
2023-03-01T08:13:10.406Z,96508.19
2023-03-01T08:15:38.724Z,96510.03
2023-03-01T08:18:08.507Z,96508.47
2023-03-01T08:20:36.884Z,96500.59
2023-03-01T08:23:05.162Z,96502.56
2023-03-01T08:25:33.757Z,96481.84
2023-03-01T08:28:02.075Z,96493.41
2023-03-01T08:30:30.609Z,96491.59
2023-03-01T08:32:59.088Z,96485.38
2023-03-01T08:35:28.980Z,96494.16
2023-03-01T08:37:57.719Z,96480.69
2023-03-01T08:40:25.960Z,96488.66
2023-03-01T08:42:54.273Z,96494.44
2023-03-01T08:45:23.105Z,96485.97
2023-03-01T08:47:54.968Z,96478.00
2023-03-01T08:50:25.470Z,96482.94
2023-03-01T08:52:55.249Z,96492.94
2023-03-01T08:55:23.847Z,96387.56
2023-03-01T08:57:52.187Z,96476.66
2023-03-01T09:00:21.470Z,96461.16
2023-03-01T09:02:49.790Z,96433.91
2023-03-01T09:05:20.240Z,96467.22
2023-03-01T09:07:48.657Z,96437.22
2023-03-01T09:10:18.799Z,96481.84
2023-03-01T09:12:47.145Z,96474.44
2023-03-01T09:15:15.517Z,96473.09
2023-03-01T09:17:43.974Z,96471.38
2023-03-01T09:20:13.357Z,96462.63
2023-03-01T09:22:41.700Z,96461.06
2023-03-01T09:25:10.915Z,96442.09
2023-03-01T09:27:40.683Z,96443.84
2023-03-01T09:30:11.179Z,96452.50
2023-03-01T09:32:43.769Z,96439.19
2023-03-01T09:35:12.148Z,96444.75
2023-03-01T09:37:40.923Z,96438.09
2023-03-01T09:40:16.773Z,96441.00
2023-03-01T09:42:55.365Z,96431.25
2023-03-01T09:45:30.760Z,96433.53
2023-03-01T09:47:59.453Z,96379.59
2023-03-01T09:50:30.612Z,96429.47
2023-03-01T09:53:06.837Z,96436.06
2023-03-01T09:55:44.831Z,96437.34
2023-03-01T09:58:41.082Z,96416.41
2023-03-01T10:01:26.217Z,96425.28
2023-03-01T10:04:07.574Z,96406.91
2023-03-01T10:06:35.977Z,96426.59
2023-03-01T10:09:10.125Z,96369.94
2023-03-01T10:11:41.952Z,96420.38
2023-03-01T10:14:22.205Z,96419.53
2023-03-01T10:16:55.813Z,96408.31
2023-03-01T10:19:25.476Z,96424.31
2023-03-01T10:21:54.268Z,96407.44
2023-03-01T10:24:23.002Z,96411.91
2023-03-01T10:26:58.584Z,96418.31
2023-03-01T10:29:34.109Z,96417.88
2023-03-01T10:32:03.140Z,96357.31
2023-03-01T10:34:33.761Z,96382.31
2023-03-01T10:37:11.547Z,96407.38
2023-03-01T10:39:56.153Z,96414.66
2023-03-01T10:42:29.713Z,96407.25
2023-03-01T10:45:00.766Z,96404.22
2023-03-01T10:47:30.818Z,96385.94
2023-03-01T10:50:03.043Z,96398.28
2023-03-01T10:52:36.946Z,96399.53
2023-03-01T10:55:27.107Z,96392.03
2023-03-01T10:58:09.735Z,96405.63
2023-03-01T11:00:50.438Z,96400.50
2023-03-01T11:03:23.323Z,96399.50
2023-03-01T11:06:04.713Z,96393.09
2023-03-01T11:08:39.096Z,96381.03
2023-03-01T11:11:21.690Z,96389.44
2023-03-01T11:13:59.024Z,96381.66
2023-03-01T11:16:35.015Z,96386.66
2023-03-01T11:19:18.698Z,96385.75
2023-03-01T11:21:54.649Z,96386.66
2023-03-01T11:24:28.753Z,96384.22
2023-03-01T11:26:58.212Z,96383.94
2023-03-01T11:29:43.227Z,96384.34
2023-03-01T11:32:18.372Z,96377.81
2023-03-01T11:34:51.914Z,96350.22
2023-03-01T11:37:31.729Z,96363.75
2023-03-01T11:40:08.291Z,96377.31
2023-03-01T11:42:50.429Z,96374.41
2023-03-01T11:45:18.803Z,96345.78
2023-03-01T11:48:08.598Z,96356.88
2023-03-01T11:50:44.614Z,96359.13
2023-03-01T11:53:27.738Z,96355.84
2023-03-01T11:56:06.945Z,96365.66
2023-03-01T11:58:56.290Z,96353.81
2023-03-01T12:01:40.918Z,96352.19
2023-03-01T12:04:36.604Z,96347.69
2023-03-01T12:07:13.851Z,96347.28
2023-03-01T12:09:56.148Z,96338.28
2023-03-01T12:12:38.778Z,96320.88
2023-03-01T12:15:32.048Z,96340.72
2023-03-01T12:18:22.599Z,96339.06
2023-03-01T12:21:03.270Z,96322.53
2023-03-01T12:23:51.897Z,96327.63
2023-03-01T12:26:28.446Z,96340.72
2023-03-01T12:29:21.032Z,96337.03
2023-03-01T12:32:10.690Z,96310.03
2023-03-01T12:35:09.063Z,96334.59
2023-03-01T12:37:53.754Z,96329.69
2023-03-01T12:40:44.731Z,96322.31
2023-03-01T12:43:34.344Z,96328.44
2023-03-01T12:46:18.644Z,96330.91
2023-03-01T12:48:59.074Z,96238.06
2023-03-01T12:51:32.137Z,96320.69
2023-03-01T12:54:07.496Z,96309.38
2023-03-01T12:56:41.132Z,96314.13
2023-03-01T12:59:15.185Z,96312.50
2023-03-01T13:01:54.401Z,96304.09
2023-03-01T13:04:41.494Z,96263.81
2023-03-01T13:07:26.758Z,96300.63
2023-03-01T13:10:04.993Z,96307.56
2023-03-01T13:12:48.158Z,96299.41
2023-03-01T13:15:30.683Z,96308.00
2023-03-01T13:18:00.586Z,96278.50
2023-03-01T13:20:36.293Z,96297.75
2023-03-01T13:23:09.810Z,96312.81
2023-03-01T13:26:08.837Z,96314.66
2023-03-01T13:28:48.691Z,96319.81
2023-03-01T13:32:04.795Z,96320.88
2023-03-01T13:34:47.825Z,96287.13
2023-03-01T13:37:31.692Z,96289.59
2023-03-01T13:40:05.727Z,96324.78
2023-03-01T13:42:39.621Z,96284.66
2023-03-01T13:45:19.428Z,96313.06
2023-03-01T13:47:50.474Z,96305.53
2023-03-01T13:50:22.544Z,96294.88
2023-03-01T13:52:54.812Z,96300.19
2023-03-01T13:55:27.288Z,96305.13
2023-03-01T13:58:00.224Z,96297.75
2023-03-01T14:00:36.978Z,96257.88
2023-03-01T14:03:16.328Z,96295.91
2023-03-01T14:06:12.674Z,96295.72
2023-03-01T14:08:42.822Z,96287.72
2023-03-01T14:11:48.275Z,96242.16
2023-03-01T14:14:49.164Z,96295.72
2023-03-01T14:17:40.142Z,96290.03
2023-03-01T14:20:15.772Z,96289.59
2023-03-01T14:22:45.426Z,96284.06
2023-03-01T14:25:25.017Z,96284.06
2023-03-01T14:28:05.928Z,96277.94
2023-03-01T14:30:40.011Z,96271.41
2023-03-01T14:33:21.451Z,96268.75
2023-03-01T14:35:57.062Z,96254.44
2023-03-01T14:38:30.258Z,96273.25
2023-03-01T14:41:03.391Z,96271.19
2023-03-01T14:43:33.888Z,96258.53
2023-03-01T14:46:04.110Z,96267.94
2023-03-01T14:48:34.733Z,96231.78
2023-03-01T14:51:03.419Z,96258.94
2023-03-01T14:53:42.776Z,96244.81
2023-03-01T14:56:20.006Z,96254.84
2023-03-01T14:58:49.545Z,96252.59
2023-03-01T15:01:20.579Z,96264.66
2023-03-01T15:03:51.233Z,96260.34
2023-03-01T15:06:22.308Z,96261.59
2023-03-01T15:08:54.196Z,96256.09
2023-03-01T15:11:25.899Z,96214.41
2023-03-01T15:13:55.403Z,96249.53
2023-03-01T15:16:28.927Z,96257.72
2023-03-01T15:18:58.678Z,96258.34
2023-03-01T15:21:30.192Z,96252.41
2023-03-01T15:24:05.129Z,96260.38
2023-03-01T15:26:40.092Z,96260.34
2023-03-01T15:29:17.827Z,96249.13
2023-03-01T15:31:58.420Z,96227.84
2023-03-01T15:34:28.320Z,96252.81
2023-03-01T15:36:58.349Z,96253.00
2023-03-01T15:39:39.539Z,96231.53
2023-03-01T15:42:13.431Z,96259.53
2023-03-01T15:44:47.027Z,96257.72
2023-03-01T15:47:29.677Z,96255.44
2023-03-01T15:49:59.419Z,96257.28
2023-03-01T15:52:31.112Z,96253.63
2023-03-01T15:55:02.248Z,96259.34
2023-03-01T15:57:30.814Z,96253.22
2023-03-01T15:59:59.152Z,96256.88
2023-03-01T16:02:28.993Z,96252.00
2023-03-01T16:04:58.131Z,96254.84
2023-03-01T16:07:29.060Z,96239.66
2023-03-01T16:09:57.448Z,96255.66
2023-03-01T16:12:26.422Z,96259.31
2023-03-01T16:14:55.172Z,96261.78
2023-03-01T16:17:23.442Z,96244.19
2023-03-01T16:19:53.562Z,96256.03
2023-03-01T16:22:26.300Z,96254.41
2023-03-01T16:24:54.729Z,96253.19
2023-03-01T16:27:23.511Z,96255.78
2023-03-01T16:29:52.276Z,96255.59
2023-03-01T16:32:20.995Z,96217.97
2023-03-01T16:34:50.473Z,96259.88
2023-03-01T16:37:20.436Z,96260.44
2023-03-01T16:39:50.029Z,96262.50
2023-03-01T16:42:18.937Z,96268.19
2023-03-01T16:44:47.327Z,96271.31
2023-03-01T16:47:15.698Z,96236.50
2023-03-01T16:49:44.228Z,96271.81
2023-03-01T16:52:12.522Z,96276.25
2023-03-01T16:54:42.287Z,96267.69
2023-03-01T16:57:10.586Z,96280.97
2023-03-01T16:59:38.918Z,96261.78
2023-03-01T17:02:09.284Z,96269.50
2023-03-01T17:04:37.584Z,96273.34
2023-03-01T17:07:05.983Z,96276.22
2023-03-01T17:09:37.524Z,96246.75
2023-03-01T17:12:07.471Z,96279.88
2023-03-01T17:14:35.747Z,96269.66
2023-03-01T17:17:05.302Z,96270.66
2023-03-01T17:19:34.960Z,96208.22
2023-03-01T17:22:03.728Z,96237.06
2023-03-01T17:24:35.143Z,96195.50
2023-03-01T17:27:03.709Z,96286.31
2023-03-01T17:29:33.802Z,96270.91
2023-03-01T17:32:02.599Z,96285.22
2023-03-01T17:34:33.389Z,96280.50
2023-03-01T17:37:02.162Z,96285.00
2023-03-01T17:39:36.257Z,96286.19
2023-03-01T17:42:06.812Z,96291.91
2023-03-01T17:44:37.530Z,96290.25
2023-03-01T17:47:07.870Z,96263.06
2023-03-01T17:49:36.183Z,96293.50
2023-03-01T17:52:04.724Z,96291.84
2023-03-01T17:54:33.673Z,96293.06
2023-03-01T17:57:02.180Z,96238.00
2023-03-01T17:59:33.562Z,96287.31
2023-03-01T18:02:03.398Z,96291.81
2023-03-01T18:04:32.517Z,96291.81
2023-03-01T18:07:01.784Z,96296.28
2023-03-01T18:09:30.650Z,96247.91
2023-03-01T18:11:58.989Z,96303.59
2023-03-01T18:14:29.909Z,96282.25
2023-03-01T18:16:58.351Z,96261.44
2023-03-01T18:19:28.787Z,96294.22
2023-03-01T18:21:57.176Z,96299.50
2023-03-01T18:24:25.819Z,96286.91
2023-03-01T18:26:54.216Z,96289.28
2023-03-01T18:29:22.564Z,96293.78
2023-03-01T18:31:50.906Z,96291.09
2023-03-01T18:34:19.222Z,96293.09
2023-03-01T18:37:08.154Z,96285.53
2023-03-01T18:39:37.264Z,96299.38
2023-03-01T18:42:05.804Z,96289.34
2023-03-01T18:44:34.155Z,96282.03
2023-03-01T18:47:03.383Z,96216.53
2023-03-01T18:49:31.695Z,96272.81
2023-03-01T18:52:01.918Z,96283.78
2023-03-01T18:54:30.781Z,96285.19
2023-03-01T18:56:59.230Z,96285.19
2023-03-01T18:59:27.699Z,96286.66
2023-03-01T19:01:56.148Z,96289.84
2023-03-01T19:04:24.524Z,96244.38
2023-03-01T19:06:52.827Z,96280.78
2023-03-01T19:09:23.154Z,96011.13
2023-03-01T19:11:51.464Z,96261.94
2023-03-01T19:14:19.852Z,96266.84
2023-03-01T19:16:48.187Z,96268.88
2023-03-01T19:19:16.501Z,96268.06
2023-03-01T19:21:50.607Z,96269.09
2023-03-01T19:24:23.041Z,96262.31
2023-03-01T19:26:51.404Z,96266.81
2023-03-01T19:29:19.784Z,96263.34
2023-03-01T19:31:48.213Z,96265.16
2023-03-01T19:34:17.078Z,96272.50
2023-03-01T19:36:47.140Z,96267.56
2023-03-01T19:39:16.164Z,96265.31
2023-03-01T19:41:48.878Z,96265.41
2023-03-01T19:44:18.514Z,96267.31
2023-03-01T19:46:46.824Z,96260.75
2023-03-01T19:49:16.048Z,96242.22
2023-03-01T19:51:44.779Z,96269.47
2023-03-01T19:54:15.321Z,96275.13
2023-03-01T19:56:46.736Z,96281.63
2023-03-01T19:59:17.498Z,96271.31
2023-03-01T20:01:47.485Z,96283.19
2023-03-01T20:04:17.440Z,96245.91
2023-03-01T20:06:48.195Z,96271.78
2023-03-01T20:09:21.808Z,96265.28
2023-03-01T20:11:54.519Z,96246.63
2023-03-01T20:14:24.640Z,96273.03
2023-03-01T20:16:54.946Z,96266.13
2023-03-01T20:19:24.604Z,96242.34
2023-03-01T20:21:54.386Z,96276.88
2023-03-01T20:24:23.851Z,96277.06
2023-03-01T20:26:55.186Z,96264.75
2023-03-01T20:29:25.019Z,96276.63
2023-03-01T20:31:55.106Z,96249.59
2023-03-01T20:34:24.745Z,96274.72
2023-03-01T20:36:55.094Z,96274.09
2023-03-01T20:39:25.916Z,96263.53
2023-03-01T20:41:58.361Z,96258.22
2023-03-01T20:44:28.101Z,96259.69
2023-03-01T20:46:58.104Z,96270.06
2023-03-01T20:49:27.818Z,96185.69
2023-03-01T20:51:57.611Z,96263.25
2023-03-01T20:54:28.425Z,96236.78
2023-03-01T20:56:59.932Z,96266.81
2023-03-01T20:59:29.956Z,96267.03
2023-03-01T21:02:00.132Z,96270.66
2023-03-01T21:04:29.822Z,96270.66
2023-03-01T21:06:59.576Z,96236.63
2023-03-01T21:09:29.510Z,96272.03
2023-03-01T21:12:00.673Z,96265.28
2023-03-01T21:14:30.437Z,96266.13
2023-03-01T21:17:10.266Z,96263.66
2023-03-01T21:19:44.273Z,96260.94
2023-03-01T21:22:14.894Z,96266.78
2023-03-01T21:24:45.243Z,96264.59
2023-03-01T21:27:15.934Z,96264.69
2023-03-01T21:29:46.536Z,96245.28
2023-03-01T21:32:16.064Z,96259.78
2023-03-01T21:34:47.279Z,96242.38
2023-03-01T21:37:17.191Z,96250.03
2023-03-01T21:39:46.175Z,96241.75
2023-03-01T21:42:16.471Z,96238.19
2023-03-01T21:44:45.329Z,96231.25
2023-03-01T21:47:14.008Z,96228.78
2023-03-01T21:49:42.377Z,96171.72
2023-03-01T21:52:17.215Z,96240.53
2023-03-01T21:54:46.423Z,96244.53
2023-03-01T21:57:17.317Z,96247.38
2023-03-01T21:59:46.077Z,96249.19
2023-03-01T22:02:15.981Z,96240.44
2023-03-01T22:04:45.527Z,96234.34
2023-03-01T22:07:13.821Z,96236.97
2023-03-01T22:09:42.251Z,96230.81
2023-03-01T22:12:10.497Z,96226.41
2023-03-01T22:14:40.691Z,96231.06
2023-03-01T22:17:09.316Z,96232.88
2023-03-01T22:19:37.915Z,96231.06
2023-03-01T22:22:06.599Z,96227.81
2023-03-01T22:24:34.999Z,96210.94
2023-03-01T22:27:03.285Z,96227.72
2023-03-01T22:29:32.063Z,96207.69
2023-03-01T22:32:02.192Z,96226.19
2023-03-01T22:34:30.847Z,96231.00
2023-03-01T22:36:59.383Z,96229.00
2023-03-01T22:39:27.684Z,96233.91
2023-03-01T22:41:56.281Z,96238.00
2023-03-01T22:44:25.567Z,96224.72
2023-03-01T22:46:54.259Z,96220.63
2023-03-01T22:49:24.032Z,96222.44
2023-03-01T22:51:53.692Z,96220.44
2023-03-01T22:54:22.221Z,96214.06
2023-03-01T22:56:51.152Z,96212.88
2023-03-01T22:59:23.242Z,96172.56
2023-03-01T23:01:52.230Z,96209.41
2023-03-01T23:04:22.545Z,96213.06
2023-03-01T23:06:54.307Z,96212.63
2023-03-01T23:09:26.130Z,96204.22
2023-03-01T23:11:55.773Z,96201.78
2023-03-01T23:14:24.897Z,96201.97
2023-03-01T23:16:54.162Z,96203.16
2023-03-01T23:19:23.156Z,96195.84
2023-03-01T23:21:54.644Z,96195.13
2023-03-01T23:24:25.922Z,96187.28
2023-03-01T23:26:54.529Z,96198.31
2023-03-01T23:29:23.496Z,96188.56
2023-03-01T23:31:51.838Z,96191.63
2023-03-01T23:34:21.110Z,96197.56
2023-03-01T23:36:49.384Z,96193.72
2023-03-01T23:39:19.508Z,96191.91
2023-03-01T23:41:48.021Z,96151.84
2023-03-01T23:44:18.030Z,96178.03
2023-03-01T23:46:48.082Z,96169.28
2023-03-01T23:49:18.954Z,96167.22
2023-03-01T23:51:48.998Z,96176.13
2023-03-01T23:54:20.541Z,96168.22
2023-03-01T23:56:49.413Z,96172.50
2023-03-01T23:59:20.087Z,96170.47
